sensor_id;sensor_type;location;lat;lon;timestamp;pressure;altitude;pressure_sealevel;temperature;humidity
37634;BME280;32048;49.902;22.508;2023-03-31T00:00:52;97910.00;;;5.59;100.00
37634;BME280;32048;49.902;22.508;2023-03-31T00:03:19;97903.84;;;5.60;100.00
37634;BME280;32048;49.902;22.508;2023-03-31T00:05:55;97895.06;;;5.61;100.00
37634;BME280;32048;49.902;22.508;2023-03-31T00:08:25;97900.16;;;5.65;100.00
37634;BME280;32048;49.902;22.508;2023-03-31T00:11:00;97907.13;;;5.66;100.00
37634;BME280;32048;49.902;22.508;2023-03-31T00:13:28;97906.28;;;5.65;100.00
37634;BME280;32048;49.902;22.508;2023-03-31T00:16:01;97906.13;;;5.68;100.00
37634;BME280;32048;49.902;22.508;2023-03-31T00:18:30;97906.13;;;5.68;100.00
37634;BME280;32048;49.902;22.508;2023-03-31T00:21:12;97898.31;;;5.67;100.00
37634;BME280;32048;49.902;22.508;2023-03-31T00:23:40;97889.47;;;5.69;100.00
37634;BME280;32048;49.902;22.508;2023-03-31T00:26:07;97881.84;;;5.65;100.00
37634;BME280;32048;49.902;22.508;2023-03-31T00:28:35;97885.31;;;5.65;100.00
37634;BME280;32048;49.902;22.508;2023-03-31T00:31:02;97907.91;;;5.68;100.00
37634;BME280;32048;49.902;22.508;2023-03-31T00:33:29;97883.47;;;5.67;100.00
37634;BME280;32048;49.902;22.508;2023-03-31T00:35:57;97886.00;;;5.69;100.00
37634;BME280;32048;49.902;22.508;2023-03-31T00:38:28;97888.69;;;5.67;100.00
37634;BME280;32048;49.902;22.508;2023-03-31T00:40:56;97872.84;;;5.70;100.00
37634;BME280;32048;49.902;22.508;2023-03-31T00:43:34;97881.63;;;5.69;100.00
37634;BME280;32048;49.902;22.508;2023-03-31T00:48:47;97876.09;;;5.75;100.00
37634;BME280;32048;49.902;22.508;2023-03-31T00:51:17;97868.25;;;5.75;100.00
37634;BME280;32048;49.902;22.508;2023-03-31T00:53:50;97863.78;;;5.77;100.00
37634;BME280;32048;49.902;22.508;2023-03-31T00:56:21;97864.63;;;5.78;100.00
37634;BME280;32048;49.902;22.508;2023-03-31T00:58:48;97873.28;;;5.80;100.00
37634;BME280;32048;49.902;22.508;2023-03-31T01:01:18;97873.28;;;5.80;100.00
37634;BME280;32048;49.902;22.508;2023-03-31T01:03:46;97852.25;;;5.81;100.00
37634;BME280;32048;49.902;22.508;2023-03-31T01:06:15;97859.16;;;5.82;100.00
37634;BME280;32048;49.902;22.508;2023-03-31T01:08:47;97859.16;;;5.82;100.00
37634;BME280;32048;49.902;22.508;2023-03-31T01:11:18;97838.94;;;5.86;100.00
37634;BME280;32048;49.902;22.508;2023-03-31T01:13:47;97844.94;;;5.88;100.00
37634;BME280;32048;49.902;22.508;2023-03-31T01:16:17;97846.72;;;5.88;100.00
37634;BME280;32048;49.902;22.508;2023-03-31T01:18:44;97835.38;;;5.87;100.00
37634;BME280;32048;49.902;22.508;2023-03-31T01:52:03;97830.81;;;6.10;100.00
37634;BME280;32048;49.902;22.508;2023-03-31T01:54:36;97835.22;;;6.09;100.00
37634;BME280;32048;49.902;22.508;2023-03-31T01:57:17;97829.06;;;6.10;100.00
37634;BME280;32048;49.902;22.508;2023-03-31T02:02:20;97820.50;;;6.07;100.00
37634;BME280;32048;49.902;22.508;2023-03-31T02:04:54;97816.25;;;6.04;100.00
37634;BME280;32048;49.902;22.508;2023-03-31T02:07:27;97825.69;;;6.08;100.00
37634;BME280;32048;49.902;22.508;2023-03-31T02:09:59;97834.22;;;6.12;100.00
37634;BME280;32048;49.902;22.508;2023-03-31T02:12:30;97828.19;;;6.10;100.00
37634;BME280;32048;49.902;22.508;2023-03-31T02:14:59;97829.19;;;6.07;100.00
37634;BME280;32048;49.902;22.508;2023-03-31T02:17:30;97822.22;;;6.08;100.00
37634;BME280;32048;49.902;22.508;2023-03-31T02:20:07;97816.19;;;6.06;100.00
37634;BME280;32048;49.902;22.508;2023-03-31T02:22:39;97816.97;;;6.08;100.00
37634;BME280;32048;49.902;22.508;2023-03-31T02:25:09;97818.66;;;6.09;100.00
37634;BME280;32048;49.902;22.508;2023-03-31T02:27:39;97819.59;;;6.08;100.00
37634;BME280;32048;49.902;22.508;2023-03-31T02:30:09;97811.63;;;6.09;100.00
37634;BME280;32048;49.902;22.508;2023-03-31T02:32:40;97821.13;;;6.12;100.00
37634;BME280;32048;49.902;22.508;2023-03-31T02:35:11;97823.84;;;6.10;100.00
37634;BME280;32048;49.902;22.508;2023-03-31T02:37:41;97822.66;;;6.16;100.00
37634;BME280;32048;49.902;22.508;2023-03-31T02:40:13;97826.13;;;6.16;100.00
37634;BME280;32048;49.902;22.508;2023-03-31T02:42:42;97826.84;;;6.20;100.00
37634;BME280;32048;49.902;22.508;2023-03-31T02:45:47;97820.59;;;6.22;100.00
37634;BME280;32048;49.902;22.508;2023-03-31T02:48:22;97824.00;;;6.24;100.00
37634;BME280;32048;49.902;22.508;2023-03-31T03:06:18;97836.94;;;6.28;100.00
37634;BME280;32048;49.902;22.508;2023-03-31T03:17:46;97840.34;;;6.30;100.00
37634;BME280;32048;49.902;22.508;2023-03-31T03:20:14;97835.88;;;6.32;100.00
37634;BME280;32048;49.902;22.508;2023-03-31T03:22:42;97842.94;;;6.30;100.00
37634;BME280;32048;49.902;22.508;2023-03-31T03:25:11;97840.19;;;6.33;100.00
37634;BME280;32048;49.902;22.508;2023-03-31T03:27:39;97840.97;;;6.35;100.00
37634;BME280;32048;49.902;22.508;2023-03-31T03:30:08;97839.19;;;6.35;100.00
37634;BME280;32048;49.902;22.508;2023-03-31T03:32:36;97837.41;;;6.36;100.00
37634;BME280;32048;49.902;22.508;2023-03-31T03:35:05;97848.69;;;6.38;100.00
37634;BME280;32048;49.902;22.508;2023-03-31T03:37:32;97854.00;;;6.36;100.00
37634;BME280;32048;49.902;22.508;2023-03-31T03:39:59;97846.13;;;6.36;100.00
37634;BME280;32048;49.902;22.508;2023-03-31T03:42:27;97834.78;;;6.36;100.00
37634;BME280;32048;49.902;22.508;2023-03-31T03:44:54;97845.28;;;6.36;100.00
37634;BME280;32048;49.902;22.508;2023-03-31T03:47:21;97838.25;;;6.36;100.00
37634;BME280;32048;49.902;22.508;2023-03-31T03:49:48;97842.72;;;6.34;100.00
37634;BME280;32048;49.902;22.508;2023-03-31T03:52:15;97841.75;;;6.37;100.00
37634;BME280;32048;49.902;22.508;2023-03-31T03:54:42;97838.34;;;6.35;100.00
37634;BME280;32048;49.902;22.508;2023-03-31T03:57:10;97848.06;;;6.33;100.00
37634;BME280;32048;49.902;22.508;2023-03-31T03:59:37;97837.66;;;6.31;100.00
37634;BME280;32048;49.902;22.508;2023-03-31T04:02:05;97834.84;;;6.34;100.00
37634;BME280;32048;49.902;22.508;2023-03-31T04:04:32;97847.28;;;6.31;100.00
37634;BME280;32048;49.902;22.508;2023-03-31T04:06:59;97831.63;;;6.29;100.00
37634;BME280;32048;49.902;22.508;2023-03-31T04:09:26;97841.28;;;6.29;100.00
37634;BME280;32048;49.902;22.508;2023-03-31T04:11:54;97831.78;;;6.26;100.00
37634;BME280;32048;49.902;22.508;2023-03-31T04:14:21;97835.25;;;6.27;100.00
37634;BME280;32048;49.902;22.508;2023-03-31T04:16:48;97838.72;;;6.27;100.00
37634;BME280;32048;49.902;22.508;2023-03-31T04:19:15;97840.50;;;6.27;100.00
37634;BME280;32048;49.902;22.508;2023-03-31T04:21:43;97840.34;;;6.30;100.00
37634;BME280;32048;49.902;22.508;2023-03-31T04:24:16;97836.03;;;6.29;100.00
37634;BME280;32048;49.902;22.508;2023-03-31T04:26:47;97838.59;;;6.30;100.00
37634;BME280;32048;49.902;22.508;2023-03-31T04:29:16;97842.13;;;6.29;100.00
37634;BME280;32048;49.902;22.508;2023-03-31T04:31:45;97831.56;;;6.31;100.00
37634;BME280;32048;49.902;22.508;2023-03-31T04:34:14;97838.41;;;6.33;100.00
37634;BME280;32048;49.902;22.508;2023-03-31T04:36:43;97832.16;;;6.36;100.00
37634;BME280;32048;49.902;22.508;2023-03-31T04:39:15;97824.38;;;6.34;100.00
37634;BME280;32048;49.902;22.508;2023-03-31T04:41:43;97825.16;;;6.36;100.00
37634;BME280;32048;49.902;22.508;2023-03-31T04:44:10;97829.47;;;6.37;100.00
37634;BME280;32048;49.902;22.508;2023-03-31T04:46:37;97818.91;;;6.39;100.00
37634;BME280;32048;49.902;22.508;2023-03-31T04:49:04;97821.44;;;6.40;100.00
37634;BME280;32048;49.902;22.508;2023-03-31T04:51:31;97827.47;;;6.42;100.00
37634;BME280;32048;49.902;22.508;2023-03-31T04:53:58;97824.78;;;6.44;100.00
37634;BME280;32048;49.902;22.508;2023-03-31T04:56:26;97829.19;;;6.43;100.00
37634;BME280;32048;49.902;22.508;2023-03-31T04:58:53;97826.41;;;6.47;100.00
37634;BME280;32048;49.902;22.508;2023-03-31T05:01:20;97831.56;;;6.48;100.00
37634;BME280;32048;49.902;22.508;2023-03-31T05:03:47;97832.25;;;6.52;100.00
37634;BME280;32048;49.902;22.508;2023-03-31T05:06:15;97836.50;;;6.54;100.00
37634;BME280;32048;49.902;22.508;2023-03-31T05:08:43;97831.19;;;6.56;100.00
37634;BME280;32048;49.902;22.508;2023-03-31T05:11:10;97838.81;;;6.60;100.00
37634;BME280;32048;49.902;22.508;2023-03-31T05:13:37;97829.03;;;6.64;100.00
37634;BME280;32048;49.902;22.508;2023-03-31T05:16:09;97827.16;;;6.66;100.00
37634;BME280;32048;49.902;22.508;2023-03-31T05:18:36;97830.63;;;6.66;100.00
37634;BME280;32048;49.902;22.508;2023-03-31T05:21:15;97830.94;;;6.60;100.00
37634;BME280;32048;49.902;22.508;2023-03-31T05:23:44;97837.03;;;6.61;100.00
37634;BME280;32048;49.902;22.508;2023-03-31T05:26:12;97842.28;;;6.61;100.00
37634;BME280;32048;49.902;22.508;2023-03-31T05:28:40;97837.03;;;6.61;100.00
37634;BME280;32048;49.902;22.508;2023-03-31T05:31:08;97835.03;;;6.66;100.00
37634;BME280;32048;49.902;22.508;2023-03-31T05:33:35;97841.13;;;6.66;100.00
37634;BME280;32048;49.902;22.508;2023-03-31T05:36:13;97838.50;;;6.66;100.00
37634;BME280;32048;49.902;22.508;2023-03-31T05:38:41;97834.09;;;6.67;100.00
37634;BME280;32048;49.902;22.508;2023-03-31T05:41:10;97835.88;;;6.66;100.00
37634;BME280;32048;49.902;22.508;2023-03-31T05:43:38;97837.56;;;6.68;100.00
37634;BME280;32048;49.902;22.508;2023-03-31T05:46:06;97832.19;;;6.71;100.00
37634;BME280;32048;49.902;22.508;2023-03-31T05:48:34;97846.81;;;6.75;100.00
37634;BME280;32048;49.902;22.508;2023-03-31T05:51:01;97844.72;;;6.81;100.00
37634;BME280;32048;49.902;22.508;2023-03-31T05:53:28;97841.88;;;6.86;100.00
37634;BME280;32048;49.902;22.508;2023-03-31T05:56:00;97838.31;;;6.87;100.00
37634;BME280;32048;49.902;22.508;2023-03-31T05:58:28;97839.03;;;6.91;100.00
37634;BME280;32048;49.902;22.508;2023-03-31T06:01:08;97837.16;;;6.93;100.00
37634;BME280;32048;49.902;22.508;2023-03-31T06:03:38;97822.16;;;6.95;100.00
37634;BME280;32048;49.902;22.508;2023-03-31T06:06:08;97829.97;;;6.96;100.00
37634;BME280;32048;49.902;22.508;2023-03-31T06:08:36;97840.16;;;7.02;100.00
37634;BME280;32048;49.902;22.508;2023-03-31T06:11:05;97840.81;;;7.06;100.00
37634;BME280;32048;49.902;22.508;2023-03-31T06:13:34;97835.44;;;7.09;100.00
37634;BME280;32048;49.902;22.508;2023-03-31T06:16:02;97826.38;;;7.15;100.00
37634;BME280;32048;49.902;22.508;2023-03-31T06:18:31;97819.13;;;7.20;100.00
37634;BME280;32048;49.902;22.508;2023-03-31T06:20:59;97826.66;;;7.26;100.00
37634;BME280;32048;49.902;22.508;2023-03-31T06:23:26;97828.94;;;7.32;100.00
37634;BME280;32048;49.902;22.508;2023-03-31T06:25:59;97834.22;;;7.32;100.00
37634;BME280;32048;49.902;22.508;2023-03-31T06:28:26;97841.16;;;7.33;100.00
37634;BME280;32048;49.902;22.508;2023-03-31T06:31:02;97846.44;;;7.33;100.00
37634;BME280;32048;49.902;22.508;2023-03-31T06:33:31;97846.25;;;7.36;100.00
37634;BME280;32048;49.902;22.508;2023-03-31T06:35:59;97836.19;;;7.44;100.00
37634;BME280;32048;49.902;22.508;2023-03-31T06:38:27;97842.03;;;7.49;100.00
37634;BME280;32048;49.902;22.508;2023-03-31T06:40:54;97843.31;;;7.58;100.00
37634;BME280;32048;49.902;22.508;2023-03-31T06:43:21;97837.56;;;7.67;100.00
37634;BME280;32048;49.902;22.508;2023-03-31T06:45:51;97839.84;;;7.74;100.00
37634;BME280;32048;49.902;22.508;2023-03-31T06:48:20;97833.97;;;7.84;100.00
37634;BME280;32048;49.902;22.508;2023-03-31T06:50:48;97836.19;;;8.08;100.00
37634;BME280;32048;49.902;22.508;2023-03-31T06:53:15;97838.44;;;8.30;100.00
37634;BME280;32048;49.902;22.508;2023-03-31T06:55:43;97836.81;;;8.43;100.00
37634;BME280;32048;49.902;22.508;2023-03-31T06:58:10;97838.72;;;8.56;100.00
37634;BME280;32048;49.902;22.508;2023-03-31T07:00:38;97842.13;;;8.58;100.00
37634;BME280;32048;49.902;22.508;2023-03-31T07:03:05;97824.81;;;8.53;100.00
37634;BME280;32048;49.902;22.508;2023-03-31T07:05:33;97839.56;;;8.56;100.00
37634;BME280;32048;49.902;22.508;2023-03-31T07:08:00;97823.34;;;8.64;100.00
37634;BME280;32048;49.902;22.508;2023-03-31T07:10:29;97836.31;;;8.67;100.00
37634;BME280;32048;49.902;22.508;2023-03-31T07:12:56;97828.50;;;8.65;100.00
37634;BME280;32048;49.902;22.508;2023-03-31T07:15:24;97826.06;;;8.77;100.00
37634;BME280;32048;49.902;22.508;2023-03-31T07:17:52;97814.34;;;8.97;100.00
37634;BME280;32048;49.902;22.508;2023-03-31T07:20:20;97819.91;;;9.21;100.00
37634;BME280;32048;49.902;22.508;2023-03-31T07:22:47;97831.50;;;9.47;100.00
37634;BME280;32048;49.902;22.508;2023-03-31T07:25:16;97826.00;;;9.64;100.00
37634;BME280;32048;49.902;22.508;2023-03-31T07:27:43;97820.03;;;9.75;100.00
37634;BME280;32048;49.902;22.508;2023-03-31T07:30:14;97824.28;;;9.77;100.00
37634;BME280;32048;49.902;22.508;2023-03-31T07:32:42;97823.13;;;9.82;100.00
37634;BME280;32048;49.902;22.508;2023-03-31T07:35:10;97821.16;;;9.85;100.00
37634;BME280;32048;49.902;22.508;2023-03-31T07:37:38;97824.34;;;9.90;100.00
37634;BME280;32048;49.902;22.508;2023-03-31T07:40:09;97814.91;;;9.86;100.00
37634;BME280;32048;49.902;22.508;2023-03-31T07:42:37;97817.97;;;9.80;100.00
37634;BME280;32048;49.902;22.508;2023-03-31T07:45:06;97829.91;;;9.86;100.00
37634;BME280;32048;49.902;22.508;2023-03-31T07:47:34;97826.97;;;9.90;100.00
37634;BME280;32048;49.902;22.508;2023-03-31T07:50:02;97838.63;;;10.01;100.00
37634;BME280;32048;49.902;22.508;2023-03-31T07:52:29;97832.00;;;10.08;100.00
37634;BME280;32048;49.902;22.508;2023-03-31T07:54:56;97834.28;;;9.99;100.00
37634;BME280;32048;49.902;22.508;2023-03-31T07:57:23;97824.78;;;9.97;100.00
37634;BME280;32048;49.902;22.508;2023-03-31T07:59:50;97825.53;;;9.99;100.00
37634;BME280;32048;49.902;22.508;2023-03-31T08:02:17;97827.78;;;10.05;100.00
37634;BME280;32048;49.902;22.508;2023-03-31T08:04:46;97824.63;;;10.13;100.00
37634;BME280;32048;49.902;22.508;2023-03-31T08:07:14;97824.59;;;10.27;100.00
37634;BME280;32048;49.902;22.508;2023-03-31T08:09:43;97821.41;;;10.49;100.00
37634;BME280;32048;49.902;22.508;2023-03-31T08:12:10;97818.63;;;11.03;98.84
37634;BME280;32048;49.902;22.508;2023-03-31T08:14:37;97827.00;;;11.73;95.92
37634;BME280;32048;49.902;22.508;2023-03-31T08:17:08;97818.72;;;12.38;88.04
37634;BME280;32048;49.902;22.508;2023-03-31T08:19:36;97795.25;;;12.69;85.78
37634;BME280;32048;49.902;22.508;2023-03-31T08:22:03;97801.34;;;13.16;82.48
37634;BME280;32048;49.902;22.508;2023-03-31T08:24:30;97793.75;;;13.68;83.33
37634;BME280;32048;49.902;22.508;2023-03-31T08:26:57;97795.13;;;14.06;75.07
37634;BME280;32048;49.902;22.508;2023-03-31T08:29:25;97791.19;;;13.89;78.10
37634;BME280;32048;49.902;22.508;2023-03-31T08:31:53;97790.75;;;14.37;75.68
37634;BME280;32048;49.902;22.508;2023-03-31T08:34:21;97786.22;;;14.81;72.15
37634;BME280;32048;49.902;22.508;2023-03-31T08:36:47;97789.19;;;15.39;72.40
37634;BME280;32048;49.902;22.508;2023-03-31T08:39:15;97783.41;;;16.15;65.75
37634;BME280;32048;49.902;22.508;2023-03-31T08:44:34;97781.19;;;16.30;62.29
37634;BME280;32048;49.902;22.508;2023-03-31T08:47:08;97782.72;;;16.33;63.57
37634;BME280;32048;49.902;22.508;2023-03-31T08:49:44;97779.22;;;16.32;63.49
37634;BME280;32048;49.902;22.508;2023-03-31T08:52:28;97773.47;;;16.47;62.67
37634;BME280;32048;49.902;22.508;2023-03-31T08:54:58;97757.13;;;16.98;63.26
37634;BME280;32048;49.902;22.508;2023-03-31T08:57:31;97756.78;;;17.49;58.42
37634;BME280;32048;49.902;22.508;2023-03-31T09:00:02;97758.06;;;18.00;56.21
37634;BME280;32048;49.902;22.508;2023-03-31T09:08:36;97735.66;;;18.73;51.45
37634;BME280;32048;49.902;22.508;2023-03-31T09:13:51;97730.59;;;18.87;50.85
37634;BME280;32048;49.902;22.508;2023-03-31T09:19:01;97728.06;;;18.60;50.13
37634;BME280;32048;49.902;22.508;2023-03-31T18:21:34;97290.56;;;9.82;100.00
37634;BME280;32048;49.902;22.508;2023-03-31T18:24:02;97289.72;;;9.81;100.00
37634;BME280;32048;49.902;22.508;2023-03-31T18:26:29;97289.81;;;9.79;100.00
37634;BME280;32048;49.902;22.508;2023-03-31T18:28:57;97284.69;;;9.78;100.00
37634;BME280;32048;49.902;22.508;2023-03-31T18:31:25;97282.88;;;9.78;100.00
37634;BME280;32048;49.902;22.508;2023-03-31T18:33:53;97281.91;;;9.79;100.00
37634;BME280;32048;49.902;22.508;2023-03-31T18:36:21;97272.97;;;9.82;100.00
37634;BME280;32048;49.902;22.508;2023-03-31T18:38:49;97263.34;;;9.81;100.00
37634;BME280;32048;49.902;22.508;2023-03-31T18:41:17;97280.88;;;9.82;100.00
37634;BME280;32048;49.902;22.508;2023-03-31T18:43:46;97266.72;;;9.83;100.00
37634;BME280;32048;49.902;22.508;2023-03-31T18:46:18;97266.00;;;9.81;100.00
37634;BME280;32048;49.902;22.508;2023-03-31T18:48:46;97267.69;;;9.82;100.00
37634;BME280;32048;49.902;22.508;2023-03-31T18:51:12;97260.81;;;9.79;100.00
37634;BME280;32048;49.902;22.508;2023-03-31T18:53:40;97260.13;;;9.77;100.00
37634;BME280;32048;49.902;22.508;2023-03-31T18:56:07;97252.41;;;9.74;100.00
37634;BME280;32048;49.902;22.508;2023-03-31T18:58:35;97251.69;;;9.72;100.00
37634;BME280;32048;49.902;22.508;2023-03-31T19:01:03;97253.38;;;9.73;100.00
37634;BME280;32048;49.902;22.508;2023-03-31T19:03:30;97245.56;;;9.72;100.00
37634;BME280;32048;49.902;22.508;2023-03-31T19:06:06;97243.78;;;9.72;100.00
37634;BME280;32048;49.902;22.508;2023-03-31T19:08:36;97234.94;;;9.73;100.00
37634;BME280;32048;49.902;22.508;2023-03-31T19:11:09;97230.59;;;9.72;100.00
37634;BME280;32048;49.902;22.508;2023-03-31T19:13:38;97228.09;;;9.71;100.00
37634;BME280;32048;49.902;22.508;2023-03-31T19:16:05;97233.34;;;9.71;100.00
37634;BME280;32048;49.902;22.508;2023-03-31T19:18:33;97223.75;;;9.70;100.00
37634;BME280;32048;49.902;22.508;2023-03-31T19:21:00;97230.81;;;9.69;100.00
37634;BME280;32048;49.902;22.508;2023-03-31T19:23:28;97227.47;;;9.67;100.00
37634;BME280;32048;49.902;22.508;2023-03-31T19:25:56;97216.91;;;9.67;100.00
37634;BME280;32048;49.902;22.508;2023-03-31T19:28:26;97207.09;;;9.69;100.00
37634;BME280;32048;49.902;22.508;2023-03-31T19:30:54;97214.91;;;9.71;100.00
37634;BME280;32048;49.902;22.508;2023-03-31T19:33:23;97201.72;;;9.71;100.00
37634;BME280;32048;49.902;22.508;2023-03-31T19:35:50;97195.50;;;9.72;100.00
37634;BME280;32048;49.902;22.508;2023-03-31T19:38:18;97202.56;;;9.71;100.00
37634;BME280;32048;49.902;22.508;2023-03-31T19:40:48;97186.75;;;9.71;100.00
37634;BME280;32048;49.902;22.508;2023-03-31T19:43:18;97180.03;;;9.67;100.00
37634;BME280;32048;49.902;22.508;2023-03-31T19:45:47;97173.03;;;9.66;100.00
37634;BME280;32048;49.902;22.508;2023-03-31T19:48:15;97173.19;;;9.65;100.00
37634;BME280;32048;49.902;22.508;2023-03-31T19:50:52;97174.25;;;9.62;100.00
37634;BME280;32048;49.902;22.508;2023-03-31T19:53:21;97162.84;;;9.62;100.00
37634;BME280;32048;49.902;22.508;2023-03-31T19:58:23;97166.22;;;9.64;100.00
37634;BME280;32048;49.902;22.508;2023-03-31T20:00:51;97154.84;;;9.63;100.00
37634;BME280;32048;49.902;22.508;2023-03-31T20:03:19;97158.78;;;9.57;100.00
37634;BME280;32048;49.902;22.508;2023-03-31T20:05:46;97167.19;;;9.63;100.00
37634;BME280;32048;49.902;22.508;2023-03-31T20:08:14;97159.28;;;9.63;100.00
37634;BME280;32048;49.902;22.508;2023-03-31T20:10:41;97156.41;;;9.66;100.00
37634;BME280;32048;49.902;22.508;2023-03-31T20:13:09;97158.19;;;9.65;100.00
37634;BME280;32048;49.902;22.508;2023-03-31T20:15:36;97154.59;;;9.66;100.00
37634;BME280;32048;49.902;22.508;2023-03-31T20:18:06;97151.84;;;9.68;100.00
37634;BME280;32048;49.902;22.508;2023-03-31T20:20:34;97146.59;;;9.68;100.00
37634;BME280;32048;49.902;22.508;2023-03-31T20:23:01;97153.56;;;9.69;100.00
37634;BME280;32048;49.902;22.508;2023-03-31T20:25:29;97149.47;;;9.65;100.00
37634;BME280;32048;49.902;22.508;2023-03-31T20:27:57;97148.63;;;9.64;100.00
37634;BME280;32048;49.902;22.508;2023-03-31T20:30:25;97135.44;;;9.64;100.00
37634;BME280;32048;49.902;22.508;2023-03-31T20:32:52;97130.03;;;9.66;100.00
37634;BME280;32048;49.902;22.508;2023-03-31T20:35:19;97129.94;;;9.67;100.00
37634;BME280;32048;49.902;22.508;2023-03-31T20:37:47;97123.84;;;9.67;100.00
37634;BME280;32048;49.902;22.508;2023-03-31T20:40:14;97122.66;;;9.71;100.00
37634;BME280;32048;49.902;22.508;2023-03-31T20:42:41;97121.94;;;9.69;100.00
37634;BME280;32048;49.902;22.508;2023-03-31T20:45:08;97124.56;;;9.69;100.00
37634;BME280;32048;49.902;22.508;2023-03-31T20:47:36;97121.19;;;9.67;100.00
37634;BME280;32048;49.902;22.508;2023-03-31T20:50:04;97120.34;;;9.66;100.00
37634;BME280;32048;49.902;22.508;2023-03-31T20:52:31;97110.66;;;9.67;100.00
37634;BME280;32048;49.902;22.508;2023-03-31T20:54:58;97120.47;;;9.65;100.00
37634;BME280;32048;49.902;22.508;2023-03-31T20:57:25;97114.22;;;9.66;100.00
37634;BME280;32048;49.902;22.508;2023-03-31T20:59:53;97108.13;;;9.65;100.00
37634;BME280;32048;49.902;22.508;2023-03-31T21:02:20;97103.69;;;9.66;100.00
37634;BME280;32048;49.902;22.508;2023-03-31T21:04:47;97096.41;;;9.69;100.00
37634;BME280;32048;49.902;22.508;2023-03-31T21:07:17;97090.06;;;9.72;100.00
37634;BME280;32048;49.902;22.508;2023-03-31T21:09:44;97090.06;;;9.72;100.00
37634;BME280;32048;49.902;22.508;2023-03-31T21:12:12;97081.19;;;9.73;100.00
37634;BME280;32048;49.902;22.508;2023-03-31T21:14:40;97081.06;;;9.74;100.00
37634;BME280;32048;49.902;22.508;2023-03-31T21:17:07;97083.59;;;9.76;100.00
37634;BME280;32048;49.902;22.508;2023-03-31T21:19:34;97083.50;;;9.77;100.00
37634;BME280;32048;49.902;22.508;2023-03-31T21:22:01;97073.78;;;9.78;100.00
37634;BME280;32048;49.902;22.508;2023-03-31T21:24:28;97074.63;;;9.78;100.00
37634;BME280;32048;49.902;22.508;2023-03-31T21:26:55;97081.44;;;9.81;100.00
37634;BME280;32048;49.902;22.508;2023-03-31T21:29:22;97069.09;;;9.82;100.00
37634;BME280;32048;49.902;22.508;2023-03-31T21:31:49;97074.38;;;9.82;100.00
37634;BME280;32048;49.902;22.508;2023-03-31T21:34:16;97070.91;;;9.81;100.00
37634;BME280;32048;49.902;22.508;2023-03-31T21:36:43;97080.63;;;9.81;100.00
37634;BME280;32048;49.902;22.508;2023-03-31T21:39:10;97077.16;;;9.80;100.00
37634;BME280;32048;49.902;22.508;2023-03-31T21:41:37;97071.88;;;9.80;100.00
37634;BME280;32048;49.902;22.508;2023-03-31T21:44:06;97067.53;;;9.79;100.00
37634;BME280;32048;49.902;22.508;2023-03-31T21:46:34;97062.28;;;9.79;100.00
37634;BME280;32048;49.902;22.508;2023-03-31T21:49:02;97056.16;;;9.78;100.00
37634;BME280;32048;49.902;22.508;2023-03-31T21:51:29;97054.38;;;9.79;100.00
37634;BME280;32048;49.902;22.508;2023-03-31T21:53:56;97045.63;;;9.78;100.00
37634;BME280;32048;49.902;22.508;2023-03-31T21:56:24;97047.53;;;9.76;100.00
37634;BME280;32048;49.902;22.508;2023-03-31T21:58:53;97050.28;;;9.75;100.00
37634;BME280;32048;49.902;22.508;2023-03-31T22:01:20;97045.72;;;9.77;100.00
37634;BME280;32048;49.902;22.508;2023-03-31T22:03:48;97044.78;;;9.78;100.00
37634;BME280;32048;49.902;22.508;2023-03-31T22:06:16;97047.63;;;9.75;100.00
37634;BME280;32048;49.902;22.508;2023-03-31T22:08:43;97036.16;;;9.76;100.00
37634;BME280;32048;49.902;22.508;2023-03-31T22:11:11;97036.06;;;9.77;100.00
37634;BME280;32048;49.902;22.508;2023-03-31T22:13:38;97034.25;;;9.78;100.00
37634;BME280;32048;49.902;22.508;2023-03-31T22:16:18;97035.19;;;9.77;100.00
37634;BME280;32048;49.902;22.508;2023-03-31T22:18:45;97024.53;;;9.78;100.00
37634;BME280;32048;49.902;22.508;2023-03-31T22:23:41;97025.16;;;9.82;100.00
37634;BME280;32048;49.902;22.508;2023-03-31T22:26:09;97026.72;;;9.85;100.00
37634;BME280;32048;49.902;22.508;2023-03-31T22:28:36;97023.00;;;9.87;100.00
37634;BME280;32048;49.902;22.508;2023-03-31T22:31:03;97021.19;;;9.88;100.00
37634;BME280;32048;49.902;22.508;2023-03-31T22:33:30;97021.09;;;9.89;100.00
37634;BME280;32048;49.902;22.508;2023-03-31T22:35:57;97025.28;;;9.92;100.00
37634;BME280;32048;49.902;22.508;2023-03-31T22:38:24;97033.44;;;9.89;100.00
37634;BME280;32048;49.902;22.508;2023-03-31T22:40:51;97027.06;;;9.91;100.00
37634;BME280;32048;49.902;22.508;2023-03-31T22:43:19;97023.56;;;9.91;100.00
37634;BME280;32048;49.902;22.508;2023-03-31T22:45:46;97010.19;;;9.94;100.00
37634;BME280;32048;49.902;22.508;2023-03-31T22:48:13;97023.34;;;9.94;100.00
37634;BME280;32048;49.902;22.508;2023-03-31T22:50:41;97009.19;;;9.95;100.00
37634;BME280;32048;49.902;22.508;2023-03-31T22:53:11;97016.19;;;9.96;100.00
37634;BME280;32048;49.902;22.508;2023-03-31T22:55:43;97016.19;;;9.96;100.00
37634;BME280;32048;49.902;22.508;2023-03-31T22:58:20;97005.38;;;9.99;100.00
37634;BME280;32048;49.902;22.508;2023-03-31T23:00:58;97007.19;;;9.98;100.00
37634;BME280;32048;49.902;22.508;2023-03-31T23:03:25;96999.03;;;10.02;100.00
37634;BME280;32048;49.902;22.508;2023-03-31T23:05:53;97002.50;;;10.02;100.00
37634;BME280;32048;49.902;22.508;2023-03-31T23:08:19;96998.09;;;10.03;100.00
37634;BME280;32048;49.902;22.508;2023-03-31T23:10:58;96989.19;;;10.04;100.00
37634;BME280;32048;49.902;22.508;2023-03-31T23:13:26;96985.72;;;10.03;100.00
37634;BME280;32048;49.902;22.508;2023-03-31T23:15:54;96989.66;;;9.97;100.00
37634;BME280;32048;49.902;22.508;2023-03-31T23:18:21;96977.34;;;9.98;100.00